createdAt,value
2018-04-30T00:01:58.694Z,4.70
2018-04-30T00:04:26.136Z,5.60
2018-04-30T00:06:53.592Z,6.57
2018-04-30T00:09:21.067Z,14.20
2018-04-30T00:11:48.617Z,4.53
2018-04-30T00:14:16.384Z,4.90
2018-04-30T00:16:44.128Z,5.47
2018-04-30T00:19:11.570Z,6.10
2018-04-30T00:21:39.034Z,4.40
2018-04-30T00:24:06.519Z,6.30
2018-04-30T00:26:33.977Z,4.73
2018-04-30T00:29:01.519Z,5.40
2018-04-30T00:31:29.199Z,5.63
2018-04-30T00:33:56.835Z,3.90
2018-04-30T00:36:24.291Z,5.37
2018-04-30T00:38:51.783Z,6.13
2018-04-30T00:41:19.344Z,6.97
2018-04-30T00:43:46.799Z,4.70
2018-04-30T00:46:14.260Z,4.00
2018-04-30T00:48:41.897Z,5.10
2018-04-30T00:51:09.360Z,4.50
2018-04-30T00:53:36.934Z,4.83
2018-04-30T00:56:04.592Z,4.50
2018-04-30T00:58:32.157Z,5.17
2018-04-30T01:00:59.635Z,3.93
2018-04-30T01:03:27.310Z,6.27
2018-04-30T01:05:54.747Z,4.97
2018-04-30T01:08:22.295Z,4.10
2018-04-30T01:10:49.824Z,3.63
2018-04-30T01:13:17.420Z,4.53
2018-04-30T01:15:44.888Z,3.87
2018-04-30T01:18:12.442Z,6.33
2018-04-30T01:20:39.892Z,4.27
2018-04-30T01:23:07.531Z,5.33
2018-04-30T01:25:34.995Z,6.77
2018-04-30T01:28:02.447Z,4.47
2018-04-30T01:30:29.947Z,4.43
2018-04-30T01:32:57.397Z,6.27
2018-04-30T01:35:24.871Z,4.47
2018-04-30T01:37:52.329Z,6.37
2018-04-30T01:40:19.870Z,4.73
2018-04-30T01:42:47.432Z,3.80
2018-04-30T01:45:14.984Z,4.53
2018-04-30T01:47:42.544Z,5.67
2018-04-30T01:50:09.996Z,5.17
2018-04-30T01:52:37.650Z,4.50
2018-04-30T01:55:05.105Z,3.83
2018-04-30T01:57:32.617Z,4.03
2018-04-30T02:00:00.062Z,6.03
2018-04-30T02:02:27.516Z,4.03
2018-04-30T02:04:54.990Z,3.53
2018-04-30T02:07:22.511Z,4.30
2018-04-30T02:09:50.076Z,3.93
2018-04-30T02:12:18.179Z,4.80
2018-04-30T02:14:45.811Z,6.60
2018-04-30T02:17:13.276Z,6.47
2018-04-30T02:19:41.012Z,3.93
2018-04-30T02:22:08.487Z,5.03
2018-04-30T02:24:35.948Z,4.70
2018-04-30T02:27:03.592Z,3.60
2018-04-30T02:29:31.081Z,4.83
2018-04-30T02:31:58.580Z,4.47
2018-04-30T02:34:26.024Z,4.27
2018-04-30T02:36:53.480Z,3.90
2018-04-30T02:39:20.942Z,3.00
2018-04-30T02:41:48.388Z,5.80
2018-04-30T02:44:15.840Z,7.97
2018-04-30T02:46:43.830Z,2.60
2018-04-30T02:49:11.282Z,4.97
2018-04-30T02:51:45.606Z,5.53
2018-04-30T02:54:13.411Z,4.87
2018-04-30T02:56:40.880Z,3.53
2018-04-30T02:59:08.442Z,4.70
2018-04-30T03:01:35.902Z,4.57
2018-04-30T03:04:03.362Z,4.57
2018-04-30T03:06:30.815Z,5.77
2018-04-30T03:08:58.272Z,5.17
2018-04-30T03:11:25.728Z,4.53
2018-04-30T03:13:53.184Z,3.97
2018-04-30T03:16:20.648Z,3.43
2018-04-30T03:18:48.092Z,3.80
2018-04-30T03:21:15.553Z,5.37
2018-04-30T03:23:43.009Z,2.70
2018-04-30T03:26:10.461Z,3.00
2018-04-30T03:28:37.940Z,3.80
2018-04-30T03:31:05.395Z,3.47
2018-04-30T03:33:32.952Z,3.93
2018-04-30T03:36:00.404Z,3.50
2018-04-30T03:38:27.866Z,4.60
2018-04-30T03:40:55.328Z,3.03
2018-04-30T03:43:22.789Z,2.93
2018-04-30T03:45:51.024Z,2.77
2018-04-30T03:48:18.497Z,3.50
2018-04-30T03:50:45.951Z,2.93
2018-04-30T03:53:13.412Z,3.80
2018-04-30T03:55:40.863Z,2.33
2018-04-30T03:58:08.320Z,3.30
2018-04-30T04:00:47.588Z,3.57
2018-04-30T04:03:26.975Z,2.93
2018-04-30T04:08:56.148Z,4.90
2018-04-30T04:11:24.368Z,3.87
2018-04-30T04:13:51.830Z,2.43
2018-04-30T04:16:19.309Z,2.53
2018-04-30T04:18:46.774Z,4.20
2018-04-30T04:21:14.218Z,2.87
2018-04-30T04:23:41.684Z,3.13
2018-04-30T04:26:09.135Z,3.83
2018-04-30T04:28:37.360Z,3.93
2018-04-30T04:31:04.813Z,3.50
2018-04-30T04:33:32.272Z,3.77
2018-04-30T04:35:59.728Z,1.97
2018-04-30T04:38:27.185Z,3.13
2018-04-30T04:40:54.636Z,2.90
2018-04-30T04:43:22.100Z,2.37
2018-04-30T04:45:49.550Z,3.67
2018-04-30T04:48:17.014Z,2.77
2018-04-30T04:50:44.513Z,3.50
2018-04-30T04:53:11.984Z,4.90
2018-04-30T04:55:39.525Z,4.57
2018-04-30T04:58:06.987Z,2.70
2018-04-30T05:00:34.444Z,2.57
2018-04-30T05:03:01.900Z,3.30
2018-04-30T05:05:29.356Z,4.20
2018-04-30T05:07:56.819Z,3.23
2018-04-30T05:10:24.268Z,2.50
2018-04-30T05:12:51.732Z,4.67
2018-04-30T05:15:19.196Z,7.13
2018-04-30T05:17:46.732Z,8.40
2018-04-30T05:20:14.185Z,5.53
2018-04-30T05:22:41.644Z,3.67
2018-04-30T05:25:09.099Z,4.33
2018-04-30T05:30:10.447Z,5.07
2018-04-30T05:32:37.908Z,5.37
2018-04-30T05:35:05.373Z,6.07
2018-04-30T05:37:32.817Z,4.57
2018-04-30T05:40:00.288Z,4.53
2018-04-30T05:42:27.749Z,7.27
2018-04-30T05:44:55.207Z,8.43
2018-04-30T05:47:22.659Z,4.73
2018-04-30T05:49:50.126Z,7.37
2018-04-30T05:52:17.576Z,4.30
2018-04-30T05:54:45.032Z,7.23
2018-04-30T05:57:12.484Z,4.50
2018-04-30T05:59:39.955Z,6.40
2018-04-30T06:02:08.179Z,4.13
2018-04-30T06:04:35.645Z,4.37
2018-04-30T06:07:03.099Z,7.63
2018-04-30T06:09:30.565Z,8.37
2018-04-30T06:11:58.024Z,5.93
2018-04-30T06:14:25.492Z,5.63
2018-04-30T06:16:53.043Z,4.80
2018-04-30T06:19:20.517Z,6.20
2018-04-30T06:21:47.977Z,4.57
2018-04-30T06:24:15.441Z,5.33
2018-04-30T06:26:42.919Z,8.57
2018-04-30T06:29:11.120Z,5.50
2018-04-30T06:31:38.582Z,7.87
2018-04-30T06:34:06.049Z,3.43
2018-04-30T06:36:33.518Z,7.33
2018-04-30T06:39:00.991Z,10.17
2018-04-30T06:41:28.447Z,8.73
2018-04-30T06:43:55.909Z,10.23
2018-04-30T06:46:24.158Z,14.10
2018-04-30T06:48:51.621Z,14.30
2018-04-30T06:51:19.071Z,5.30
2018-04-30T06:53:46.537Z,11.27
2018-04-30T06:56:14.760Z,11.40
2018-04-30T06:58:42.234Z,11.50
2018-04-30T07:01:09.698Z,17.10
2018-04-30T07:03:37.174Z,14.60
2018-04-30T07:06:04.635Z,10.30
2018-04-30T07:08:32.091Z,11.17
2018-04-30T07:10:59.544Z,7.47
2018-04-30T07:13:28.515Z,12.97
2018-04-30T07:15:55.988Z,10.13
2018-04-30T07:18:23.448Z,10.03
2018-04-30T07:20:50.924Z,7.00
2018-04-30T07:23:19.142Z,7.73
2018-04-30T07:25:46.643Z,5.30
2018-04-30T07:28:14.068Z,9.07
2018-04-30T07:30:41.531Z,9.90
2018-04-30T07:33:09.155Z,6.73
2018-04-30T07:35:36.560Z,6.10
2018-04-30T07:38:04.011Z,8.47
2018-04-30T07:40:31.478Z,5.30
2018-04-30T07:42:59.705Z,6.43
2018-04-30T07:45:27.165Z,6.37
2018-04-30T07:47:54.609Z,4.93
2018-04-30T07:50:22.076Z,5.23
2018-04-30T07:52:49.534Z,7.03
2018-04-30T07:55:17.071Z,5.17
2018-04-30T07:57:44.472Z,7.80
2018-04-30T08:00:11.954Z,7.90
2018-04-30T08:02:39.387Z,4.93
2018-04-30T08:05:07.080Z,6.03
2018-04-30T08:07:35.317Z,7.07
2018-04-30T08:10:02.782Z,7.30
2018-04-30T08:12:30.340Z,5.97
2018-04-30T08:14:57.819Z,6.83
2018-04-30T08:17:25.252Z,6.23
2018-04-30T08:19:52.730Z,7.37
2018-04-30T08:22:20.953Z,5.30
2018-04-30T08:24:48.416Z,8.73
2018-04-30T08:27:15.900Z,10.70
2018-04-30T08:29:43.463Z,6.07
2018-04-30T08:32:12.342Z,8.73
2018-04-30T08:34:39.900Z,6.93
2018-04-30T08:37:07.358Z,7.80
2018-04-30T08:39:34.825Z,5.07
2018-04-30T08:42:03.047Z,9.60
2018-04-30T08:44:30.507Z,6.03
2018-04-30T08:46:57.969Z,4.60
2018-04-30T08:49:25.478Z,8.33
2018-04-30T08:51:52.896Z,6.10
2018-04-30T08:54:20.373Z,7.67
2018-04-30T08:56:48.597Z,9.63
2018-04-30T08:59:16.054Z,6.77
2018-04-30T09:01:43.513Z,7.10
2018-04-30T09:04:11.031Z,13.03
2018-04-30T09:06:38.433Z,5.73
2018-04-30T09:09:05.888Z,9.13
2018-04-30T09:11:33.354Z,13.20
2018-04-30T09:14:00.806Z,16.23
2018-04-30T09:16:28.272Z,10.83
2018-04-30T09:18:56.345Z,6.73
2018-04-30T09:21:23.818Z,11.77
2018-04-30T09:23:52.062Z,14.93
2018-04-30T09:26:19.512Z,20.40
2018-04-30T09:28:46.967Z,13.27
2018-04-30T09:31:14.431Z,14.13
2018-04-30T09:33:41.897Z,13.90
2018-04-30T09:36:09.361Z,10.50
2018-04-30T09:38:36.816Z,12.80
2018-04-30T09:41:04.288Z,9.77
2018-04-30T09:43:32.511Z,17.60
2018-04-30T09:45:59.976Z,6.93
2018-04-30T09:48:27.427Z,13.37
2018-04-30T09:50:54.893Z,13.30
2018-04-30T09:53:22.353Z,8.33
2018-04-30T09:55:49.821Z,8.90
2018-04-30T09:58:17.272Z,9.07
2018-04-30T10:00:44.737Z,11.37
2018-04-30T10:03:12.196Z,5.83
2018-04-30T10:05:39.654Z,8.30
2018-04-30T10:08:07.875Z,8.87
2018-04-30T10:10:35.337Z,8.90
2018-04-30T10:13:02.801Z,5.90
2018-04-30T10:15:30.987Z,6.50
2018-04-30T10:17:58.447Z,12.47
2018-04-30T10:20:25.908Z,8.03
2018-04-30T10:22:53.364Z,6.30
2018-04-30T10:25:21.587Z,6.40
2018-04-30T10:27:49.107Z,8.83
2018-04-30T10:30:16.572Z,6.63
2018-04-30T10:32:44.788Z,8.13
2018-04-30T10:35:12.251Z,6.07
2018-04-30T10:37:39.725Z,5.77
2018-04-30T10:40:07.183Z,7.43
2018-04-30T10:42:34.652Z,9.00
2018-04-30T10:45:02.107Z,6.97
2018-04-30T10:47:29.584Z,5.87
2018-04-30T10:49:57.833Z,7.80
2018-04-30T10:52:25.384Z,4.63
2018-04-30T10:54:53.899Z,5.83
2018-04-30T10:57:21.359Z,5.90
2018-04-30T10:59:48.813Z,6.43
2018-04-30T11:02:16.272Z,6.93
2018-04-30T11:04:43.728Z,7.20
2018-04-30T11:07:11.183Z,6.90
2018-04-30T11:09:38.636Z,10.20
2018-04-30T11:12:06.096Z,6.30
2018-04-30T11:14:33.606Z,4.60
2018-04-30T11:17:01.161Z,4.83
2018-04-30T11:19:28.615Z,7.27
2018-04-30T11:21:56.080Z,5.33
2018-04-30T11:24:23.528Z,5.97
2018-04-30T11:26:50.988Z,5.40
2018-04-30T11:29:19.949Z,4.63
2018-04-30T11:31:47.427Z,7.20
2018-04-30T11:34:14.883Z,4.80
2018-04-30T11:36:42.346Z,4.97
2018-04-30T11:39:09.802Z,4.43
2018-04-30T11:41:37.269Z,6.53
2018-04-30T11:44:04.719Z,5.47
2018-04-30T11:46:33.689Z,7.23
2018-04-30T11:49:01.143Z,4.40
2018-04-30T11:51:28.608Z,5.00
2018-04-30T11:53:56.059Z,5.27
2018-04-30T11:56:23.523Z,6.03
2018-04-30T11:58:50.979Z,3.03
2018-04-30T12:01:18.439Z,4.30
2018-04-30T12:03:45.988Z,4.60
2018-04-30T12:06:13.448Z,3.80
2018-04-30T12:08:40.906Z,5.67
2018-04-30T12:11:08.381Z,7.40
2018-04-30T12:13:35.836Z,5.70
2018-04-30T12:16:04.081Z,5.70
2018-04-30T12:18:31.553Z,4.80
2018-04-30T12:20:59.008Z,4.20
2018-04-30T12:23:26.473Z,3.23
2018-04-30T12:25:53.916Z,4.37
2018-04-30T12:28:21.377Z,4.63
2018-04-30T12:30:48.839Z,5.33
2018-04-30T12:33:16.303Z,3.17
2018-04-30T12:35:44.523Z,2.93
2018-04-30T12:38:11.992Z,3.83
2018-04-30T12:40:39.447Z,4.80
2018-04-30T12:43:06.908Z,4.30
2018-04-30T12:45:34.385Z,3.57
2018-04-30T12:48:01.847Z,7.67
2018-04-30T12:50:29.302Z,4.57
2018-04-30T12:52:56.763Z,3.67
2018-04-30T12:55:24.986Z,4.30
2018-04-30T12:57:52.448Z,4.50
2018-04-30T13:00:19.895Z,4.50
2018-04-30T13:02:47.351Z,4.03
2018-04-30T13:05:14.805Z,3.77
2018-04-30T13:07:42.268Z,4.70
2018-04-30T13:10:09.729Z,5.83
2018-04-30T13:12:37.190Z,2.93
2018-04-30T13:15:04.665Z,5.27
2018-04-30T13:17:32.123Z,3.87
2018-04-30T13:19:59.576Z,3.50
2018-04-30T13:22:27.042Z,2.53
2018-04-30T13:24:54.503Z,4.67
2018-04-30T13:27:22.729Z,3.57
2018-04-30T13:29:50.184Z,4.07
2018-04-30T13:32:17.646Z,4.90
2018-04-30T13:34:45.101Z,3.40
2018-04-30T13:37:12.998Z,3.17
2018-04-30T13:39:40.426Z,5.67
2018-04-30T13:42:07.884Z,5.87
2018-04-30T13:44:35.337Z,2.57
2018-04-30T13:47:02.805Z,3.37
2018-04-30T13:49:31.771Z,3.30
2018-04-30T13:51:59.240Z,4.23
2018-04-30T13:54:26.684Z,2.83
2018-04-30T13:56:54.145Z,2.73
2018-04-30T13:59:21.606Z,4.77
2018-04-30T14:01:49.060Z,4.27
2018-04-30T14:04:16.519Z,2.97
2018-04-30T14:06:43.977Z,2.70
2018-04-30T14:09:11.442Z,2.50
2018-04-30T14:11:38.898Z,5.03
2018-04-30T14:14:06.356Z,3.37
2018-04-30T14:16:33.811Z,2.80
2018-04-30T14:19:01.272Z,2.73
2018-04-30T14:21:28.824Z,2.90
2018-04-30T14:23:56.997Z,4.00
2018-04-30T14:26:24.448Z,3.20
2018-04-30T14:28:51.915Z,2.50
2018-04-30T14:31:19.368Z,3.20
2018-04-30T14:33:46.838Z,2.80
2018-04-30T14:36:14.288Z,2.80
2018-04-30T14:38:41.745Z,2.30
2018-04-30T14:41:09.289Z,3.23
2018-04-30T14:43:36.746Z,2.60
2018-04-30T14:46:04.205Z,2.73
2018-04-30T14:48:31.666Z,2.67
2018-04-30T14:50:59.124Z,3.13
2018-04-30T14:53:26.889Z,4.33
2018-04-30T14:55:55.110Z,2.43
2018-04-30T14:58:22.579Z,2.83
2018-04-30T15:00:50.034Z,2.83
2018-04-30T15:03:17.492Z,3.10
2018-04-30T15:05:44.944Z,2.40
2018-04-30T15:08:12.404Z,2.70
2018-04-30T15:10:39.860Z,2.30
2018-04-30T15:13:07.327Z,3.20
2018-04-30T15:15:34.781Z,2.87
2018-04-30T15:18:02.345Z,2.50
2018-04-30T15:20:29.804Z,2.53
2018-04-30T15:22:57.272Z,2.73
2018-04-30T15:25:24.727Z,3.20
2018-04-30T15:27:52.187Z,2.93
2018-04-30T15:30:20.416Z,2.27
2018-04-30T15:32:47.871Z,3.17
2018-04-30T15:35:15.334Z,2.93
2018-04-30T15:37:42.784Z,3.33
2018-04-30T15:40:10.253Z,2.87
2018-04-30T15:42:37.701Z,3.17
2018-04-30T15:45:05.160Z,1.90
2018-04-30T15:47:32.626Z,2.90
2018-04-30T15:50:00.089Z,2.37
2018-04-30T15:52:27.545Z,2.67
2018-04-30T15:54:55.010Z,2.23
2018-04-30T15:57:23.231Z,2.50
2018-04-30T15:59:50.696Z,1.87
2018-04-30T16:02:18.153Z,2.33
2018-04-30T16:04:45.624Z,2.20
2018-04-30T16:07:13.085Z,2.60
2018-04-30T16:09:40.550Z,2.47
2018-04-30T16:12:08.001Z,2.83
2018-04-30T16:14:35.464Z,3.57
2018-04-30T16:17:02.909Z,2.33
2018-04-30T16:19:30.367Z,3.80
2018-04-30T16:21:57.824Z,3.67
2018-04-30T16:24:25.321Z,2.43
2018-04-30T16:26:52.748Z,2.23
2018-04-30T16:29:20.207Z,2.13
2018-04-30T16:31:47.753Z,2.47
2018-04-30T16:34:15.211Z,2.00
2018-04-30T16:36:42.673Z,2.70
2018-04-30T16:39:10.220Z,3.87
2018-04-30T16:41:37.676Z,3.13
2018-04-30T16:44:05.137Z,1.90
2018-04-30T16:46:32.592Z,2.53
2018-04-30T16:49:00.060Z,2.10
2018-04-30T16:51:28.321Z,2.00
2018-04-30T16:53:55.779Z,2.33
2018-04-30T16:56:23.242Z,2.00
2018-04-30T16:58:50.735Z,2.00
2018-04-30T17:01:18.928Z,1.90
2018-04-30T17:03:46.515Z,3.20
2018-04-30T17:06:13.864Z,5.77
2018-04-30T17:08:41.337Z,3.40
2018-04-30T17:11:08.807Z,12.23
2018-04-30T17:13:37.012Z,6.40
2018-04-30T17:16:04.477Z,9.27
2018-04-30T17:18:32.035Z,4.57
2018-04-30T17:20:59.423Z,5.13
2018-04-30T17:23:26.874Z,6.17
2018-04-30T17:25:54.336Z,4.40
2018-04-30T17:28:21.782Z,5.00
2018-04-30T17:30:49.253Z,8.03
2018-04-30T17:33:16.698Z,4.67
2018-04-30T17:35:44.159Z,2.57
2018-04-30T17:38:11.619Z,5.80
2018-04-30T17:40:39.071Z,2.90
2018-04-30T17:43:06.525Z,2.27
2018-04-30T17:45:33.996Z,1.90
2018-04-30T17:48:02.246Z,4.67
2018-04-30T17:50:29.707Z,4.57
2018-04-30T17:52:57.156Z,3.90
2018-04-30T17:55:24.708Z,3.43
2018-04-30T17:57:52.161Z,5.13
2018-04-30T18:00:19.627Z,2.73
2018-04-30T18:02:47.081Z,4.63
2018-04-30T18:05:14.548Z,3.27
2018-04-30T18:07:42.000Z,3.43
2018-04-30T18:10:09.459Z,5.37
2018-04-30T18:12:36.919Z,3.77
2018-04-30T18:15:04.375Z,3.20
2018-04-30T18:17:32.629Z,2.63
2018-04-30T18:20:00.183Z,6.67
2018-04-30T18:22:27.632Z,3.87
2018-04-30T18:24:55.096Z,4.77
2018-04-30T18:27:22.561Z,9.67
2018-04-30T18:29:50.021Z,3.77
2018-04-30T18:32:17.476Z,3.73
2018-04-30T18:34:44.941Z,4.63
2018-04-30T18:37:13.171Z,4.77
2018-04-30T18:39:40.641Z,3.37
2018-04-30T18:42:08.173Z,5.80
2018-04-30T18:44:35.662Z,3.53
2018-04-30T18:47:03.103Z,5.40
2018-04-30T18:49:30.557Z,4.97
2018-04-30T18:51:58.039Z,3.93
2018-04-30T18:54:25.492Z,3.77
2018-04-30T18:56:52.952Z,5.23
2018-04-30T18:59:20.409Z,4.73
2018-04-30T19:01:47.868Z,4.77
2018-04-30T19:04:15.319Z,4.93
2018-04-30T19:06:42.779Z,3.50
2018-04-30T19:09:10.232Z,3.30
2018-04-30T19:11:37.691Z,6.30
2018-04-30T19:14:05.918Z,4.00
2018-04-30T19:16:33.381Z,18.63
2018-04-30T19:19:00.836Z,4.57
2018-04-30T19:21:28.313Z,13.43
2018-04-30T19:23:55.974Z,5.43
2018-04-30T19:26:23.445Z,4.40
2018-04-30T19:28:50.904Z,5.03
2018-04-30T19:31:19.135Z,5.23
2018-04-30T19:33:46.594Z,4.03
2018-04-30T19:36:14.056Z,4.47
2018-04-30T19:38:41.506Z,4.07
2018-04-30T19:41:08.965Z,3.87
2018-04-30T19:43:36.419Z,1.63
2018-04-30T19:46:03.876Z,3.57
2018-04-30T19:48:31.332Z,4.30
2018-04-30T19:50:58.793Z,4.07
2018-04-30T19:53:26.244Z,1.57
2018-04-30T19:55:53.720Z,6.63
2018-04-30T19:58:22.059Z,3.63
2018-04-30T20:00:49.760Z,5.47
2018-04-30T20:03:17.267Z,2.37
2018-04-30T20:05:44.742Z,1.93
2018-04-30T20:08:12.232Z,4.10
2018-04-30T20:10:39.776Z,4.40
2018-04-30T20:13:07.228Z,3.70
2018-04-30T20:15:34.687Z,4.83
2018-04-30T20:18:02.157Z,2.30
2018-04-30T20:20:31.216Z,2.63
2018-04-30T20:22:58.580Z,7.77
2018-04-30T20:25:26.046Z,2.87
2018-04-30T20:27:53.508Z,3.47
2018-04-30T20:30:20.976Z,3.17
2018-04-30T20:32:49.199Z,2.60
2018-04-30T20:35:16.652Z,4.70
2018-04-30T20:37:44.108Z,6.30
2018-04-30T20:40:11.564Z,4.23
2018-04-30T20:42:39.024Z,9.60
2018-04-30T20:45:06.478Z,4.17
2018-04-30T20:47:33.936Z,4.60
2018-04-30T20:50:01.392Z,6.17
2018-04-30T20:52:28.855Z,8.50
2018-04-30T20:54:56.307Z,4.23
2018-04-30T20:57:23.780Z,5.00
2018-04-30T20:59:51.231Z,5.77
2018-04-30T21:02:18.693Z,6.57
2018-04-30T21:04:46.145Z,4.53
2018-04-30T21:07:13.612Z,7.40
2018-04-30T21:09:41.063Z,10.27
2018-04-30T21:12:08.521Z,7.00
2018-04-30T21:14:36.076Z,3.87
2018-04-30T21:17:03.535Z,6.10
2018-04-30T21:19:30.984Z,3.63
2018-04-30T21:21:58.448Z,5.53
2018-04-30T21:24:26.007Z,7.23
2018-04-30T21:26:53.364Z,7.03
2018-04-30T21:29:20.908Z,2.20
2018-04-30T21:31:48.369Z,3.17
2018-04-30T21:34:16.741Z,4.67
2018-04-30T21:36:44.199Z,3.43
2018-04-30T21:39:11.755Z,3.57
2018-04-30T21:41:39.211Z,2.97
2018-04-30T21:44:06.664Z,4.03
2018-04-30T21:46:34.116Z,2.37
2018-04-30T21:49:01.573Z,7.67
2018-04-30T21:51:29.131Z,6.47
2018-04-30T21:53:56.585Z,2.33
2018-04-30T21:56:24.043Z,4.73
2018-04-30T21:58:51.496Z,4.63
2018-04-30T22:01:18.949Z,4.00
2018-04-30T22:03:46.405Z,4.80
2018-04-30T22:06:13.853Z,2.07
2018-04-30T22:08:41.320Z,3.43
2018-04-30T22:11:08.776Z,4.87
2018-04-30T22:13:36.506Z,2.10
2018-04-30T22:16:03.992Z,5.50
2018-04-30T22:18:31.544Z,2.93
2018-04-30T22:20:59.008Z,3.37
2018-04-30T22:23:26.467Z,5.20
2018-04-30T22:25:53.919Z,6.23
2018-04-30T22:28:21.377Z,3.07
2018-04-30T22:30:48.830Z,5.20
2018-04-30T22:33:19.243Z,2.70
2018-04-30T22:35:52.934Z,3.57
2018-04-30T22:38:20.396Z,3.53
2018-04-30T22:40:47.842Z,2.00
2018-04-30T22:43:15.309Z,2.63
2018-04-30T22:45:42.756Z,2.40
2018-04-30T22:48:10.220Z,6.33
2018-04-30T22:50:37.676Z,2.83
2018-04-30T22:53:05.148Z,4.87
2018-04-30T22:55:32.608Z,2.63
2018-04-30T22:58:00.077Z,5.63
2018-04-30T23:00:28.299Z,4.03
2018-04-30T23:02:55.759Z,3.17
2018-04-30T23:05:23.212Z,3.77
2018-04-30T23:07:50.667Z,3.33
2018-04-30T23:10:18.126Z,3.77
2018-04-30T23:12:45.584Z,1.73
2018-04-30T23:15:13.040Z,4.50
2018-04-30T23:17:40.496Z,1.90
2018-04-30T23:20:07.957Z,3.27
2018-04-30T23:22:38.256Z,2.90
2018-04-30T23:25:05.709Z,2.27
2018-04-30T23:27:33.180Z,1.90
2018-04-30T23:30:00.638Z,3.13
2018-04-30T23:32:28.117Z,2.00
2018-04-30T23:34:55.562Z,2.13
2018-04-30T23:37:23.057Z,3.40
2018-04-30T23:39:51.279Z,3.40
2018-04-30T23:42:18.735Z,3.40
2018-04-30T23:44:46.201Z,4.00
2018-04-30T23:49:47.628Z,2.77
2018-04-30T23:52:15.088Z,2.90
2018-04-30T23:54:42.605Z,2.63
2018-04-30T23:57:10.564Z,2.27
2018-04-30T23:59:38.023Z,4.60
